createdAt,value
2023-03-07T00:01:36.094Z,94203.03
2023-03-07T00:04:03.932Z,94207.28
2023-03-07T00:06:31.188Z,94197.78
2023-03-07T00:09:02.288Z,94186.38
2023-03-07T00:11:29.468Z,94173.78
2023-03-07T00:13:56.453Z,94191.53
2023-03-07T00:16:24.658Z,94190.53
2023-03-07T00:18:51.933Z,94164.22
2023-03-07T00:21:22.053Z,94180.53
2023-03-07T00:23:52.169Z,94188.78
2023-03-07T00:26:22.022Z,94184.03
2023-03-07T00:28:51.309Z,94178.16
2023-03-07T00:31:19.824Z,94157.47
2023-03-07T00:33:47.845Z,94151.63
2023-03-07T00:36:17.967Z,94161.25
2023-03-07T00:38:45.714Z,94166.09
2023-03-07T00:41:15.445Z,94167.13
2023-03-07T00:43:42.551Z,94160.94
2023-03-07T00:46:10.120Z,94168.31
2023-03-07T00:48:39.222Z,94180.09
2023-03-07T00:51:08.513Z,94178.56
2023-03-07T00:53:35.789Z,94166.31
2023-03-07T00:56:06.823Z,94171.41
2023-03-07T00:58:37.074Z,94174.06
2023-03-07T01:01:06.168Z,94166.81
2023-03-07T01:03:34.272Z,94166.00
2023-03-07T01:06:29.032Z,94182.63
2023-03-07T01:08:59.349Z,94159.41
2023-03-07T01:11:28.828Z,94154.09
2023-03-07T01:13:58.366Z,94146.88
2023-03-07T01:16:30.710Z,94135.31
2023-03-07T01:19:00.878Z,94161.56
2023-03-07T01:21:30.939Z,94145.63
2023-03-07T01:24:01.644Z,94118.63
2023-03-07T01:26:31.166Z,94114.53
2023-03-07T01:29:01.782Z,94120.13
2023-03-07T01:31:32.527Z,94102.00
2023-03-07T01:34:02.408Z,94122.59
2023-03-07T01:36:34.096Z,94127.47
2023-03-07T01:39:10.329Z,94134.69
2023-03-07T01:41:40.968Z,94132.38
2023-03-07T01:44:21.497Z,94130.06
2023-03-07T01:46:48.778Z,94122.41
2023-03-07T01:49:27.912Z,94121.84
2023-03-07T01:52:12.457Z,94126.84
2023-03-07T01:54:49.096Z,94137.97
2023-03-07T01:57:22.990Z,94114.50
2023-03-07T01:59:54.899Z,94136.06
2023-03-07T02:02:22.997Z,94133.09
2023-03-07T02:05:00.124Z,94120.63
2023-03-07T02:07:31.879Z,94126.50
2023-03-07T02:10:01.341Z,94097.56
2023-03-07T02:12:30.775Z,94081.25
2023-03-07T02:14:57.914Z,94112.59
2023-03-07T02:17:25.431Z,94109.19
2023-03-07T02:20:29.881Z,94118.63
2023-03-07T02:22:57.302Z,94115.94
2023-03-07T02:25:52.039Z,94114.06
2023-03-07T02:28:20.712Z,94119.09
2023-03-07T02:30:59.131Z,94118.53
2023-03-07T02:33:28.953Z,94102.84
2023-03-07T02:36:09.252Z,94120.69
2023-03-07T02:38:43.126Z,94112.16
2023-03-07T02:41:13.054Z,94123.09
2023-03-07T02:43:40.204Z,94126.97
2023-03-07T02:46:08.513Z,94132.03
2023-03-07T02:48:35.412Z,94110.97
2023-03-07T02:51:02.788Z,94110.50
2023-03-07T02:53:29.759Z,94109.94
2023-03-07T02:55:56.663Z,94105.63
2023-03-07T02:58:23.559Z,94121.44
2023-03-07T03:00:50.744Z,94121.78
2023-03-07T03:03:17.799Z,94100.25
2023-03-07T03:05:44.746Z,94133.75
2023-03-07T03:08:12.732Z,94114.84
2023-03-07T03:10:40.079Z,94114.44
2023-03-07T03:13:07.547Z,94127.88
2023-03-07T03:15:35.090Z,94130.84
2023-03-07T03:18:02.085Z,94125.84
2023-03-07T03:20:30.382Z,94119.75
2023-03-07T03:22:57.479Z,94118.94
2023-03-07T03:25:25.233Z,94121.34
2023-03-07T03:27:52.322Z,94109.28
2023-03-07T03:30:19.250Z,94112.03
2023-03-07T03:32:47.198Z,94105.03
2023-03-07T03:35:16.304Z,94112.19
2023-03-07T03:37:44.245Z,94091.41
2023-03-07T03:40:14.854Z,94124.81
2023-03-07T03:42:44.800Z,94125.31
2023-03-07T03:45:15.057Z,94123.44
2023-03-07T03:47:42.194Z,94129.22
2023-03-07T03:50:10.400Z,94099.69
2023-03-07T03:52:37.364Z,94132.16
2023-03-07T03:55:05.670Z,94123.09
2023-03-07T03:57:32.573Z,94127.72
2023-03-07T03:59:59.509Z,94119.81
2023-03-07T04:02:27.033Z,94128.59
2023-03-07T04:04:54.244Z,94129.75
2023-03-07T04:07:22.296Z,94135.38
2023-03-07T04:09:50.028Z,94113.53
2023-03-07T04:12:17.141Z,94123.13
2023-03-07T04:15:02.889Z,94123.38
2023-03-07T04:17:31.556Z,94114.31
2023-03-07T04:19:58.620Z,94118.63
2023-03-07T04:22:25.949Z,94123.94
2023-03-07T04:24:54.258Z,94137.78
2023-03-07T04:27:21.110Z,94134.81
2023-03-07T04:29:48.204Z,94140.63
2023-03-07T04:32:20.950Z,94130.75
2023-03-07T04:34:49.397Z,94135.25
2023-03-07T04:37:16.208Z,94140.19
2023-03-07T04:39:43.613Z,94137.50
2023-03-07T04:42:11.199Z,94153.75
2023-03-07T04:44:38.152Z,94153.19
2023-03-07T04:47:05.304Z,94151.00
2023-03-07T04:49:35.494Z,94153.19
2023-03-07T04:52:05.556Z,94165.09
2023-03-07T04:54:32.939Z,94145.25
2023-03-07T04:57:01.645Z,94144.22
2023-03-07T04:59:28.729Z,94155.88
2023-03-07T05:01:55.838Z,94155.72
2023-03-07T05:04:23.121Z,94150.88
2023-03-07T05:06:50.047Z,94159.47
2023-03-07T05:09:17.348Z,94154.66
2023-03-07T05:11:44.953Z,94163.44
2023-03-07T05:14:13.130Z,94159.22
2023-03-07T05:16:40.104Z,94143.28
2023-03-07T05:19:08.374Z,94147.59
2023-03-07T05:21:35.363Z,94167.41
2023-03-07T05:24:02.648Z,94165.00
2023-03-07T05:26:30.995Z,94154.38
2023-03-07T05:28:57.846Z,94163.88
2023-03-07T05:31:24.888Z,94146.50
2023-03-07T05:33:52.005Z,94163.38
2023-03-07T05:36:18.973Z,94149.53
2023-03-07T05:38:45.948Z,94167.19
2023-03-07T05:41:13.048Z,94166.69
2023-03-07T05:43:40.393Z,94118.00
2023-03-07T05:46:07.698Z,94173.38
2023-03-07T05:48:35.951Z,94183.56
2023-03-07T05:51:02.884Z,94190.28
2023-03-07T05:53:31.075Z,94191.94
2023-03-07T05:55:58.584Z,94178.09
2023-03-07T05:58:26.320Z,94185.81
2023-03-07T06:00:53.856Z,94182.66
2023-03-07T06:03:21.443Z,94184.59
2023-03-07T06:05:52.043Z,94185.97
2023-03-07T06:08:19.102Z,94199.34
2023-03-07T06:10:50.927Z,94158.06
2023-03-07T06:13:20.692Z,94187.53
2023-03-07T06:15:52.215Z,94198.47
2023-03-07T06:18:21.725Z,94194.53
2023-03-07T06:21:00.136Z,94148.13
2023-03-07T06:23:32.487Z,94186.47
2023-03-07T06:26:01.539Z,94177.47
2023-03-07T06:28:29.569Z,94176.75
2023-03-07T06:30:57.376Z,94193.34
2023-03-07T06:33:24.687Z,94186.50
2023-03-07T06:35:51.847Z,94178.00
2023-03-07T06:38:19.164Z,94189.00
2023-03-07T06:40:46.052Z,94192.00
2023-03-07T06:43:13.290Z,94198.16
2023-03-07T06:45:40.417Z,94193.06
2023-03-07T06:48:08.407Z,94207.78
2023-03-07T06:50:35.935Z,94205.09
2023-03-07T06:53:04.334Z,94204.56
2023-03-07T06:55:31.764Z,94195.22
2023-03-07T06:57:58.784Z,94204.88
2023-03-07T07:00:25.967Z,94206.47
2023-03-07T07:02:53.162Z,94184.34
2023-03-07T07:05:20.669Z,94185.66
2023-03-07T07:07:47.790Z,94194.19
2023-03-07T07:10:14.704Z,94203.56
2023-03-07T07:12:42.034Z,94203.25
2023-03-07T07:15:09.801Z,94168.84
2023-03-07T07:17:36.938Z,94202.16
2023-03-07T07:20:05.468Z,94183.19
2023-03-07T07:22:34.363Z,94191.47
2023-03-07T07:25:01.312Z,94190.91
2023-03-07T07:27:30.250Z,94208.03
2023-03-07T07:29:57.560Z,94174.09
2023-03-07T07:32:24.671Z,94187.97
2023-03-07T07:34:52.416Z,94201.56
2023-03-07T07:37:19.307Z,94200.22
2023-03-07T07:39:46.453Z,94217.03
2023-03-07T07:42:13.496Z,94210.09
2023-03-07T07:44:54.013Z,94207.63
2023-03-07T07:47:21.180Z,94206.59
2023-03-07T07:49:48.097Z,94213.03
2023-03-07T07:52:15.145Z,94205.28
2023-03-07T07:54:42.231Z,94205.22
2023-03-07T07:57:09.274Z,94211.09
2023-03-07T07:59:36.745Z,94211.31
2023-03-07T08:02:06.034Z,94205.78
2023-03-07T08:04:33.038Z,94220.19
2023-03-07T08:07:00.350Z,94204.34
2023-03-07T08:09:27.226Z,94196.44
2023-03-07T08:11:54.512Z,94194.72
2023-03-07T08:14:21.395Z,94226.66
2023-03-07T08:16:48.297Z,94210.69
2023-03-07T08:19:15.388Z,94205.47
2023-03-07T08:21:42.254Z,94212.84
2023-03-07T08:24:09.239Z,94213.94
2023-03-07T08:26:36.101Z,94214.94
2023-03-07T08:29:03.610Z,94221.41
2023-03-07T08:31:30.675Z,94220.09
2023-03-07T08:33:57.570Z,94223.63
2023-03-07T08:36:24.541Z,94215.28
2023-03-07T08:38:52.304Z,94229.97
2023-03-07T08:41:21.265Z,94217.16
2023-03-07T08:43:48.556Z,94220.38
2023-03-07T08:46:15.589Z,94225.00
2023-03-07T08:48:43.031Z,94219.53
2023-03-07T08:51:15.024Z,94213.50
2023-03-07T08:53:46.329Z,94211.38
2023-03-07T08:56:17.203Z,94194.75
2023-03-07T08:58:44.555Z,94218.59
2023-03-07T09:01:13.160Z,94195.31
2023-03-07T09:03:40.118Z,94205.97
2023-03-07T09:06:07.255Z,94209.53
2023-03-07T09:08:34.338Z,94199.38
2023-03-07T09:11:03.690Z,94210.16
2023-03-07T09:13:33.066Z,94195.25
2023-03-07T09:16:04.819Z,94184.53
2023-03-07T09:18:32.071Z,94187.66
2023-03-07T09:21:00.313Z,94186.25
2023-03-07T09:23:27.696Z,94184.38
2023-03-07T09:25:54.741Z,94193.31
2023-03-07T09:28:21.528Z,94180.47
2023-03-07T09:30:48.450Z,94188.19
2023-03-07T09:33:15.336Z,94188.75
2023-03-07T09:35:42.279Z,94172.69
2023-03-07T09:38:10.453Z,94176.31
2023-03-07T09:40:38.076Z,94172.91
2023-03-07T09:43:19.417Z,94182.16
2023-03-07T09:46:21.496Z,94178.25
2023-03-07T09:49:00.647Z,94183.09
2023-03-07T09:51:40.938Z,94174.84
2023-03-07T09:54:13.992Z,94169.41
2023-03-07T09:56:54.817Z,94153.78
2023-03-07T09:59:42.213Z,94162.28
2023-03-07T10:02:41.015Z,94149.28
2023-03-07T10:05:23.578Z,94157.03
2023-03-07T10:07:51.689Z,94150.94
2023-03-07T10:10:27.159Z,94151.66
2023-03-07T10:13:12.803Z,94145.78
2023-03-07T10:15:48.824Z,94140.16
2023-03-07T10:18:40.705Z,94136.59
2023-03-07T10:21:21.782Z,94127.94
2023-03-07T10:24:08.104Z,94123.25
2023-03-07T10:26:47.763Z,94087.97
2023-03-07T10:29:18.702Z,94115.03
2023-03-07T10:31:55.149Z,94112.69
2023-03-07T10:34:30.164Z,94117.09
2023-03-07T10:37:09.022Z,94113.00
2023-03-07T10:39:44.772Z,94103.72
2023-03-07T10:42:14.896Z,94088.16
2023-03-07T10:44:42.377Z,94089.91
2023-03-07T10:47:19.414Z,94092.97
2023-03-07T10:49:48.490Z,94093.56
2023-03-07T10:52:15.775Z,94079.44
2023-03-07T10:54:42.703Z,94083.22
2023-03-07T10:57:09.950Z,94074.34
2023-03-07T10:59:45.783Z,94065.66
2023-03-07T11:02:21.709Z,94070.09
2023-03-07T11:04:48.751Z,94052.53
2023-03-07T11:07:29.690Z,94052.22
2023-03-07T11:09:58.841Z,94049.00
2023-03-07T11:12:29.145Z,94039.53
2023-03-07T11:15:08.905Z,94023.66
2023-03-07T11:17:45.034Z,94025.53
2023-03-07T11:20:25.682Z,94028.16
2023-03-07T11:23:17.340Z,94018.41
2023-03-07T11:25:44.785Z,94003.06
2023-03-07T11:28:33.728Z,94007.66
2023-03-07T11:31:30.343Z,94009.66
2023-03-07T11:34:08.871Z,94007.16
2023-03-07T11:36:36.912Z,94013.72
2023-03-07T11:39:30.878Z,94006.91
2023-03-07T11:42:04.490Z,93970.28
2023-03-07T11:44:51.510Z,93991.00
2023-03-07T11:47:44.556Z,93996.84
2023-03-07T11:50:25.760Z,93981.03
2023-03-07T11:53:17.572Z,93990.81
2023-03-07T11:56:05.953Z,93985.53
2023-03-07T11:58:51.634Z,93983.81
2023-03-07T12:01:35.682Z,93977.44
2023-03-07T12:04:24.264Z,93992.75
2023-03-07T12:07:00.164Z,93982.09
2023-03-07T12:09:35.999Z,93985.09
2023-03-07T12:12:28.982Z,93979.91
2023-03-07T12:15:33.548Z,93981.69
2023-03-07T12:18:21.948Z,93970.13
2023-03-07T12:21:03.827Z,93971.69
2023-03-07T12:23:36.306Z,93974.84
2023-03-07T12:26:15.289Z,93968.84
2023-03-07T12:28:52.587Z,93974.91
2023-03-07T12:31:48.113Z,93953.91
2023-03-07T12:35:05.161Z,93942.53
2023-03-07T12:37:45.985Z,93955.88
2023-03-07T12:40:21.040Z,93958.19
2023-03-07T12:43:07.777Z,93952.00
2023-03-07T12:45:51.284Z,93954.88
2023-03-07T12:48:26.327Z,93955.56
2023-03-07T12:51:07.002Z,93958.81
2023-03-07T12:53:53.680Z,93944.84
2023-03-07T12:56:34.248Z,93953.56
2023-03-07T12:59:12.810Z,93936.56
2023-03-07T13:01:52.069Z,93951.34
2023-03-07T13:04:43.294Z,93952.44
2023-03-07T13:07:18.372Z,93947.66
2023-03-07T13:09:47.520Z,93933.50
2023-03-07T13:12:20.259Z,93947.50
2023-03-07T13:15:27.861Z,93951.94
2023-03-07T13:17:57.147Z,93933.84
2023-03-07T13:20:38.364Z,93947.78
2023-03-07T13:23:34.131Z,93948.94
2023-03-07T13:26:05.077Z,93947.78
2023-03-07T13:28:42.551Z,93946.38
2023-03-07T13:31:15.860Z,93941.00
2023-03-07T13:33:43.812Z,93934.97
2023-03-07T13:36:38.721Z,93943.34
2023-03-07T13:39:38.452Z,93942.84
2023-03-07T13:42:25.520Z,93935.41
2023-03-07T13:44:52.597Z,93925.38
2023-03-07T13:47:44.246Z,93943.66
2023-03-07T13:50:36.244Z,93948.91
2023-03-07T13:53:18.821Z,93944.97
2023-03-07T13:56:19.984Z,93949.56
2023-03-07T13:58:59.219Z,93946.84
2023-03-07T14:01:59.349Z,93951.78
2023-03-07T14:04:54.223Z,93947.16
2023-03-07T14:07:24.705Z,93936.69
2023-03-07T14:10:23.339Z,93923.34
2023-03-07T14:13:05.771Z,93951.59
2023-03-07T14:15:55.923Z,93939.72
2023-03-07T14:18:54.541Z,93945.44
2023-03-07T14:21:41.352Z,93941.28
2023-03-07T14:24:31.348Z,93948.59
2023-03-07T14:27:03.674Z,93948.78
2023-03-07T14:29:31.130Z,93944.16
2023-03-07T14:32:00.659Z,93946.06
2023-03-07T14:34:32.154Z,93949.38
2023-03-07T14:37:07.652Z,93946.00
2023-03-07T14:39:49.821Z,93948.81
2023-03-07T14:42:50.904Z,93958.59
2023-03-07T14:45:23.609Z,93936.91
2023-03-07T14:48:17.067Z,93957.38
2023-03-07T14:50:44.841Z,93946.84
2023-03-07T14:53:25.773Z,93949.06
2023-03-07T14:55:55.128Z,93955.00
2023-03-07T14:59:10.840Z,93961.94
2023-03-07T15:01:42.849Z,93958.56
2023-03-07T15:04:29.667Z,93949.56
2023-03-07T15:07:00.109Z,93950.97
2023-03-07T15:09:28.670Z,93945.69
2023-03-07T15:12:12.783Z,93927.41
2023-03-07T15:14:56.312Z,93929.00
2023-03-07T15:17:32.894Z,93932.59
2023-03-07T15:20:07.712Z,93936.09
2023-03-07T15:22:39.689Z,93940.72
2023-03-07T15:25:18.647Z,93937.06
2023-03-07T15:27:45.869Z,93946.94
2023-03-07T15:30:25.411Z,93944.47
2023-03-07T15:33:10.738Z,93947.66
2023-03-07T15:35:38.133Z,93947.66
2023-03-07T15:38:26.054Z,93950.44
2023-03-07T15:40:53.303Z,93952.47
2023-03-07T15:43:23.581Z,93948.97
2023-03-07T15:46:17.382Z,93949.66
2023-03-07T15:48:50.348Z,93906.34
2023-03-07T15:51:20.293Z,93952.03
2023-03-07T15:54:18.448Z,93943.44
2023-03-07T15:56:46.349Z,93955.16
2023-03-07T15:59:23.835Z,93947.91
2023-03-07T16:01:50.900Z,93957.81
2023-03-07T16:04:37.988Z,93960.72
2023-03-07T16:07:07.737Z,93966.25
2023-03-07T16:09:34.959Z,93966.16
2023-03-07T16:12:02.022Z,93960.44
2023-03-07T16:14:31.816Z,93979.78
2023-03-07T16:17:02.416Z,93960.28
2023-03-07T16:19:29.890Z,93977.44
2023-03-07T16:21:57.025Z,93977.06
2023-03-07T16:24:23.960Z,93988.84
2023-03-07T16:26:51.150Z,93938.91
2023-03-07T16:29:22.912Z,93950.16
2023-03-07T16:31:49.981Z,93967.53
2023-03-07T16:34:21.894Z,93993.41
2023-03-07T16:36:48.792Z,93990.84
2023-03-07T16:39:18.040Z,93991.72
2023-03-07T16:41:46.909Z,93987.22
2023-03-07T16:44:21.569Z,93979.91
2023-03-07T16:46:57.537Z,93998.59
2023-03-07T16:49:24.492Z,94004.00
2023-03-07T16:52:04.773Z,94003.47
2023-03-07T16:54:32.641Z,94011.59
2023-03-07T16:57:01.788Z,94008.13
2023-03-07T16:59:36.569Z,93978.03
2023-03-07T17:02:16.132Z,94014.88
2023-03-07T17:04:44.410Z,94006.38
2023-03-07T17:07:19.752Z,94012.75
2023-03-07T17:09:46.842Z,94012.53
2023-03-07T17:12:14.478Z,94022.44
2023-03-07T17:14:42.693Z,94018.50
2023-03-07T17:17:21.155Z,94014.25
2023-03-07T17:19:48.182Z,94014.06
2023-03-07T17:22:15.161Z,94009.47
2023-03-07T17:24:42.274Z,93999.16
2023-03-07T17:27:09.626Z,94013.84
2023-03-07T17:29:43.768Z,93997.94
2023-03-07T17:32:11.153Z,94010.94
2023-03-07T17:34:38.563Z,94018.16
2023-03-07T17:37:06.171Z,94024.59
2023-03-07T17:39:34.436Z,94024.38
2023-03-07T17:42:02.112Z,94020.38
2023-03-07T17:44:29.969Z,94022.00
2023-03-07T17:46:58.452Z,94006.25
2023-03-07T17:49:28.834Z,94023.88
2023-03-07T17:51:55.785Z,94020.69
2023-03-07T17:54:22.650Z,94018.88
2023-03-07T17:56:50.297Z,94020.75
2023-03-07T17:59:17.388Z,94020.50
2023-03-07T18:01:44.540Z,93974.13
2023-03-07T18:04:14.847Z,94030.63
2023-03-07T18:06:41.959Z,94016.50
2023-03-07T18:09:09.311Z,94030.13
2023-03-07T18:11:36.723Z,93984.56
2023-03-07T18:14:03.816Z,94036.53
2023-03-07T18:16:31.006Z,94031.50
2023-03-07T18:19:00.218Z,94020.59
2023-03-07T18:21:29.918Z,94021.41
2023-03-07T18:23:57.758Z,94036.03
2023-03-07T18:26:24.829Z,94025.63
2023-03-07T18:28:53.859Z,94030.69
2023-03-07T18:31:25.076Z,94008.09
2023-03-07T18:33:53.301Z,94020.06
2023-03-07T18:36:24.569Z,94043.25
2023-03-07T18:38:52.459Z,94048.38
2023-03-07T18:41:24.571Z,94052.34
2023-03-07T18:43:53.418Z,94034.22
2023-03-07T18:46:21.726Z,94053.16
2023-03-07T18:48:49.300Z,94028.66
2023-03-07T18:51:19.580Z,94053.44
2023-03-07T18:53:46.864Z,94010.53
2023-03-07T18:56:15.999Z,94036.13
2023-03-07T18:58:43.777Z,94049.75
2023-03-07T19:01:13.671Z,94054.28
2023-03-07T19:03:41.325Z,94048.41
2023-03-07T19:06:09.712Z,94062.56
2023-03-07T19:08:36.960Z,94058.81
2023-03-07T19:11:05.580Z,94009.50
2023-03-07T19:13:33.426Z,94064.44
2023-03-07T19:16:06.355Z,94038.88
2023-03-07T19:18:34.002Z,94060.19
2023-03-07T19:21:09.121Z,94061.28
2023-03-07T19:23:36.443Z,94059.94
2023-03-07T19:26:05.955Z,94053.28
2023-03-07T19:28:33.262Z,94060.47
2023-03-07T19:31:15.171Z,94053.03
2023-03-07T19:33:42.875Z,94064.75
2023-03-07T19:36:12.578Z,94057.03
2023-03-07T19:38:40.015Z,94069.03
2023-03-07T19:41:11.607Z,94058.59
2023-03-07T19:43:38.896Z,94055.16
2023-03-07T19:46:08.863Z,94058.63
2023-03-07T19:48:36.266Z,94044.50
2023-03-07T19:51:04.274Z,94062.38
2023-03-07T19:53:31.436Z,94069.31
2023-03-07T19:56:08.884Z,94051.69
2023-03-07T19:58:37.312Z,94063.44
2023-03-07T20:01:09.445Z,94050.09
2023-03-07T20:03:37.112Z,94069.31
2023-03-07T20:06:05.176Z,94071.97
2023-03-07T20:08:33.645Z,94064.78
2023-03-07T20:11:11.866Z,94089.31
2023-03-07T20:13:40.173Z,94075.19
2023-03-07T20:16:10.301Z,94075.72
2023-03-07T20:18:38.450Z,94081.31
2023-03-07T20:21:10.722Z,94086.66
2023-03-07T20:23:39.811Z,94083.16
2023-03-07T20:26:09.723Z,94077.78
2023-03-07T20:28:37.364Z,94079.63
2023-03-07T20:31:08.837Z,94085.72
2023-03-07T20:33:40.353Z,94080.91
2023-03-07T20:36:13.128Z,94095.81
2023-03-07T20:38:40.172Z,94060.59
2023-03-07T20:41:10.462Z,94105.09
2023-03-07T20:43:38.540Z,94095.78
2023-03-07T20:46:08.112Z,94102.97
2023-03-07T20:48:35.680Z,94106.38
2023-03-07T20:51:06.758Z,94031.84
2023-03-07T20:53:34.091Z,94106.31
2023-03-07T20:56:05.209Z,94105.25
2023-03-07T20:58:32.938Z,94127.91
2023-03-07T21:01:00.845Z,94104.13
2023-03-07T21:03:28.539Z,94119.94
2023-03-07T21:06:00.533Z,94100.63
2023-03-07T21:08:30.496Z,94118.19
2023-03-07T21:10:59.029Z,94121.66
2023-03-07T21:13:27.246Z,94114.72
2023-03-07T21:15:56.164Z,94108.81
2023-03-07T21:18:23.956Z,94118.66
2023-03-07T21:20:52.082Z,94106.59
2023-03-07T21:23:19.426Z,94109.25
2023-03-07T21:25:47.255Z,94086.25
2023-03-07T21:28:14.184Z,94108.94
2023-03-07T21:30:41.279Z,94095.81
2023-03-07T21:33:08.217Z,94098.94
2023-03-07T21:35:39.291Z,94110.44
2023-03-07T21:38:06.381Z,94105.00
2023-03-07T21:40:33.704Z,94111.66
2023-03-07T21:43:00.820Z,94112.47
2023-03-07T21:45:27.743Z,94112.91
2023-03-07T21:47:54.789Z,94051.41
2023-03-07T21:50:21.717Z,94110.44
2023-03-07T21:52:48.911Z,94117.09
2023-03-07T21:55:16.595Z,94121.50
2023-03-07T21:57:43.807Z,94108.63
2023-03-07T22:00:15.902Z,94115.03
2023-03-07T22:02:46.274Z,94103.34
2023-03-07T22:05:13.391Z,94105.41
2023-03-07T22:07:40.280Z,94108.81
2023-03-07T22:10:08.245Z,94121.84
2023-03-07T22:12:35.096Z,94112.78
2023-03-07T22:15:01.950Z,94109.22
2023-03-07T22:17:30.796Z,94104.69
2023-03-07T22:19:57.756Z,94102.25
2023-03-07T22:22:24.754Z,94099.84
2023-03-07T22:24:52.344Z,94120.06
2023-03-07T22:27:19.935Z,94130.97
2023-03-07T22:29:47.186Z,94132.53
2023-03-07T22:32:14.185Z,94103.31
2023-03-07T22:34:41.178Z,94128.94
2023-03-07T22:37:08.134Z,94112.84
2023-03-07T22:39:35.158Z,94097.34
2023-03-07T22:42:02.035Z,94122.16
2023-03-07T22:44:29.034Z,94032.81
2023-03-07T22:46:57.170Z,94116.00
2023-03-07T22:49:24.069Z,94118.59
2023-03-07T22:51:50.975Z,94104.88
2023-03-07T22:54:17.802Z,94133.16
2023-03-07T22:56:44.767Z,94126.19
2023-03-07T22:59:11.968Z,94137.09
2023-03-07T23:01:38.852Z,94142.94
2023-03-07T23:04:08.656Z,94120.94
2023-03-07T23:06:36.959Z,94110.47
2023-03-07T23:09:05.857Z,94126.56
2023-03-07T23:11:33.653Z,94143.56
2023-03-07T23:14:00.897Z,94141.25
2023-03-07T23:16:29.978Z,94128.00
2023-03-07T23:18:58.094Z,94152.78
2023-03-07T23:21:29.191Z,94144.50
2023-03-07T23:23:56.436Z,94139.94
2023-03-07T23:26:26.302Z,94152.56
2023-03-07T23:28:54.361Z,94130.66
2023-03-07T23:31:31.114Z,94145.66
2023-03-07T23:34:00.550Z,94088.25
2023-03-07T23:36:29.747Z,94158.31
2023-03-07T23:38:57.274Z,94148.19
2023-03-07T23:41:24.969Z,94146.47
2023-03-07T23:43:53.655Z,94142.50
2023-03-07T23:46:21.397Z,94148.84
2023-03-07T23:48:48.516Z,94139.09
2023-03-07T23:51:16.629Z,94155.91
2023-03-07T23:53:43.755Z,94148.66
2023-03-07T23:56:11.861Z,94147.06
2023-03-07T23:58:39.248Z,94149.31
